Latest Weather Observations for Kempsey Airport

IDN60801

Issued at 7:32 pm EST Sunday 29 May 2016 (issued every 30 minutes, with the page automatically refreshed every 10 minutes)

About weather observations | Map of weather stations | Latest weather observations for NSW | Other Formats
Station Details ID: 059007 Name: KEMPSEY AIRPORT AWS Lat: -31.07 Lon: 152.77 Height: 13.0 m
Data from the previous 72 hours. | See also: Recent months at Kempsey Airport
Date/Time
EST
Temp
°C
App
Temp
°C
Dew
Point
Rel
Hum
%
Delta-T
°C
Wind Press
QNH
hPa
Press
MSL
hPa
Rain
since 9 am
mm
Dir
 
Spd
km/h
Gust
km/h
Spd
kts
Gust
kts
29/07:30pm 6.4 5.0 3.6 82 1.2 CALM 0 0 0 0 1020.1 1020.1 0.0
29/07:00pm 7.1 5.7 3.5 78 1.5 CALM 0 0 0 0 1019.6 1019.6 0.0
29/06:30pm 7.7 6.1 2.2 68 2.3 CALM 0 0 0 0 1019.2 1019.2 0.0
29/06:00pm 9.8 8.6 4.6 70 2.3 CALM 0 0 0 0 1018.8 1018.8 0.0
29/05:30pm 11.3 10.1 4.5 63 3.1 CALM 0 6 0 3 1018.4 1018.4 0.0
29/05:00pm 14.0 11.5 4.0 51 4.6 E 6 7 3 4 1018.0 1018.0 0.0
29/04:30pm 16.2 13.2 4.3 45 5.6 ENE 9 13 5 7 1017.4 1017.4 0.0
29/04:00pm 17.8 13.6 3.7 39 6.6 ENE 15 20 8 11 1016.9 1016.9 0.0
29/03:30pm 18.8 14.5 3.4 36 7.2 E 15 20 8 11 1016.3 1016.3 0.0
29/03:00pm 20.0 16.2 1.9 30 8.3 ENE 11 15 6 8 1016.1 1016.1 0.0
29/02:30pm 20.1 16.3 1.5 29 8.5 E 11 15 6 8 1016.0 1016.0 0.0
29/02:00pm 20.5 16.3 1.9 29 8.6 E 13 20 7 11 1015.8 1015.8 0.0
29/01:30pm 19.8 17.3 1.3 29 8.4 NE 4 7 2 4 1015.7 1015.7 0.0
29/01:00pm 20.0 17.0 1.9 30 8.3 NW 7 19 4 10 1015.8 1015.8 0.0
29/12:30pm 19.5 16.0 1.5 30 8.2 WSW 9 15 5 8 1016.1 1016.1 0.0
29/12:00pm 19.1 15.3 1.6 31 7.9 W 11 19 6 10 1016.4 1016.4 0.0
29/11:30am 18.6 15.4 0.7 30 7.9 N 7 13 4 7 1016.7 1016.7 0.0
29/11:00am 18.6 15.2 1.6 32 7.6 NW 9 15 5 8 1017.1 1017.1 0.0
29/10:30am 17.6 13.5 2.4 36 6.9 NNW 13 19 7 10 1017.5 1017.5 0.0
29/10:00am 16.7 11.9 2.7 39 6.3 NW 17 22 9 12 1017.5 1017.5 0.0
29/09:30am 16.1 11.4 3.2 42 5.9 NW 17 24 9 13 1017.6 1017.6 0.0
29/09:00am 14.8 11.0 3.9 48 5.0 WNW 13 19 7 10 1017.5 1017.5 0.0
29/08:30am 13.3 11.6 3.9 53 4.3 NNE 2 6 1 3 1017.4 1017.4 0.0
29/08:00am 10.0 9.0 5.8 75 1.9 CALM 0 0 0 0 1017.1 1017.1 0.0
29/07:30am 5.5 3.2 3.0 84 1.0 SE 4 7 2 4 1016.7 1016.7 0.0
29/07:00am 4.3 1.0 2.2 86 0.8 W 9 15 5 8 1016.4 1016.4 0.0
29/06:30am 4.2 1.0 0.7 78 1.3 SW 7 9 4 5 1016.1 1016.1 0.0
29/06:00am 7.6 3.6 2.7 71 2.0 WNW 13 15 7 8 1015.8 1015.8 0.0
29/05:30am 8.2 4.9 2.2 66 2.5 WNW 9 13 5 7 1015.4 1015.4 0.0
29/05:00am 9.5 6.2 2.6 62 2.9 WNW 9 13 5 7 1015.1 1015.1 0.0
29/04:49am 9.7 5.8 3.4 65 2.7 NW 13 17 7 9 1015.0 1015.0 0.0
29/04:30am 4.7 2.3 2.4 85 0.9 SW 4 15 2 8 1014.8 1014.8 0.0
29/04:00am 3.7 1.4 0.2 78 1.3 NNW 2 7 1 4 1014.6 1014.6 0.0
29/03:30am 6.0 2.5 1.2 71 1.9 NNW 9 15 5 8 1014.5 1014.5 0.0
29/03:00am 5.6 2.2 1.7 76 1.6 WNW 9 11 5 6 1014.1 1014.1 0.0
29/02:30am 6.9 3.9 0.8 65 2.4 S 6 13 3 7 1013.9 1013.9 0.0
29/02:00am 9.9 5.8 2.5 60 3.1 WNW 13 17 7 9 1013.6 1013.6 0.0
29/01:30am 9.3 5.0 3.5 67 2.5 WNW 15 19 8 10 1013.5 1013.5 0.0
29/01:00am 7.3 4.4 1.4 66 2.4 SW 6 9 3 5 1013.2 1013.2 0.0
29/12:30am 10.2 6.8 1.8 56 3.5 NW 9 11 5 6 1013.0 1013.0 0.0
29/12:00am 11.9 7.4 2.1 51 4.2 W 15 19 8 10 1012.9 1012.9 0.0
 
Date/Time
EST
Temp
°C
App
Temp
°C
Dew
Point
Rel
Hum
%
Delta-T
°C
Wind Press
QNH
hPa
Press
MSL
hPa
Rain
since 9 am
mm
Dir
 
Spd
km/h
Gust
km/h
Spd
kts
Gust
kts
28/11:30pm 12.2 7.4 2.4 51 4.3 WNW 17 20 9 11 1012.9 1012.9 0.0
28/11:00pm 12.3 8.6 2.2 50 4.4 WNW 11 17 6 9 1013.0 1013.0 0.0
28/10:30pm 12.3 8.9 1.9 49 4.5 NW 9 15 5 8 1013.0 1013.0 0.0
28/10:00pm 12.8 8.8 2.6 50 4.5 WNW 13 19 7 10 1013.0 1013.0 0.0
28/09:30pm 12.7 8.9 1.7 47 4.7 NW 11 19 6 10 1012.6 1012.6 0.0
28/09:00pm 14.1 7.5 2.0 44 5.3 W 26 41 14 22 1011.9 1011.9 0.0
28/08:30pm 14.3 7.3 1.9 43 5.4 W 28 44 15 24 1011.7 1011.7 0.0
28/08:00pm 14.1 8.3 2.4 45 5.2 WNW 22 39 12 21 1011.6 1011.6 0.0
28/07:30pm 14.2 7.7 2.8 46 5.1 WNW 26 43 14 23 1011.3 1011.3 0.0
28/07:00pm 13.7 8.4 3.2 49 4.7 WNW 20 33 11 18 1010.7 1010.7 0.0
28/06:30pm 13.2 9.7 3.3 51 4.4 W 11 19 6 10 1010.7 1010.7 0.0
28/06:00pm 12.9 7.7 2.7 50 4.5 WSW 19 30 10 16 1010.1 1010.1 0.0
28/05:30pm 14.0 8.0 3.2 48 4.8 W 24 37 13 20 1009.7 1009.7 0.0
28/05:00pm 14.8 6.9 2.4 43 5.5 W 33 48 18 26 1009.6 1009.6 0.0
28/04:30pm 16.8 10.0 0.9 34 7.0 W 26 43 14 23 1009.0 1009.0 0.0
28/04:00pm 17.6 12.0 1.2 33 7.3 W 20 33 11 18 1008.2 1008.2 0.0
28/03:30pm 18.3 11.7 1.8 33 7.5 W 26 46 14 25 1007.5 1007.5 0.0
28/03:29pm 18.2 11.1 1.3 32 7.5 W 28 46 15 25 1007.5 1007.5 0.0
28/03:00pm 17.7 13.7 5.0 43 6.1 WNW 15 24 8 13 1007.2 1007.2 0.0
28/02:30pm 16.2 9.9 3.9 44 5.7 NW 26 41 14 22 1007.1 1007.1 0.0
28/02:00pm 17.8 11.2 4.4 41 6.4 WNW 28 41 15 22 1007.3 1007.3 0.0
28/01:55pm 17.6 10.8 4.9 43 6.1 WNW 30 41 16 22 1007.2 1007.2 0.0
28/01:30pm 17.9 9.1 3.8 39 6.6 W 39 50 21 27 1006.8 1006.8 0.0
28/01:28pm 17.8 9.3 3.3 38 6.7 W 37 50 20 27 1006.8 1006.8 0.0
28/01:09pm 20.3 13.2 3.5 33 8.0 WNW 30 50 16 27 1006.5 1006.5 0.0
28/01:00pm 19.2 14.2 3.8 36 7.3 W 19 33 10 18 1006.6 1006.6 0.0
28/12:30pm 18.8 11.0 3.0 35 7.3 W 33 63 18 34 1007.0 1007.0 0.0
28/12:08pm 20.4 12.8 2.7 31 8.3 WNW 32 52 17 28 1006.3 1006.3 0.0
28/12:00pm 20.2 12.6 3.0 32 8.1 WNW 32 46 17 25 1006.3 1006.3 0.0
28/11:54am 20.3 13.4 2.6 31 8.3 WNW 28 46 15 25 1006.4 1006.4 0.0
28/11:30am 21.8 16.2 3.5 30 8.8 NW 22 35 12 19 1006.7 1006.7 0.0
28/11:00am 20.5 16.7 3.7 33 8.0 NNW 13 24 7 13 1007.4 1007.4 0.0
28/10:30am 18.9 14.9 3.1 35 7.4 NW 13 24 7 13 1008.3 1008.3 0.0
28/10:00am 18.4 15.0 3.8 38 6.9 N 11 20 6 11 1009.1 1009.1 0.0
28/09:30am 17.4 13.2 3.7 40 6.4 N 15 20 8 11 1009.4 1009.4 0.0
28/09:00am 16.3 13.7 5.9 50 5.0 N 9 15 5 8 1010.0 1010.0 0.0
28/08:55am 15.5 14.0 7.0 57 4.2 NNW 4 11 2 6 1010.0 1010.0 0.0
28/08:30am 10.4 9.4 5.4 71 2.3 CALM 0 0 0 0 1010.2 1010.2 0.0
28/08:00am 6.7 5.4 4.2 84 1.1 CALM 0 0 0 0 1010.2 1010.2 0.0
28/07:30am 3.5 1.4 2.0 90 0.6 SSE 2 7 1 4 1010.4 1010.4 0.0
28/07:00am 1.8 -0.1 0.8 93 0.4 CALM 0 7 0 4 1010.3 1010.3 0.0
28/06:30am 1.2 -0.9 -0.9 86 0.7 CALM 0 0 0 0 1009.7 1009.7 0.0
28/06:00am 1.3 -2.1 -0.8 86 0.7 WNW 7 11 4 6 1009.4 1009.4 0.0
28/05:30am 2.6 -0.4 1.1 90 0.6 NNW 6 7 3 4 1009.2 1009.2 0.0
28/05:00am 2.0 0.0 -0.4 84 0.9 CALM 0 2 0 1 1009.3 1009.3 0.0
28/04:30am 3.2 1.3 0.4 82 1.1 CALM 0 6 0 3 1009.1 1009.1 0.0
28/04:00am 2.8 0.0 -0.1 81 1.1 WSW 4 11 2 6 1008.9 1008.9 0.0
28/03:30am 3.7 1.8 0.4 79 1.2 CALM 0 0 0 0 1008.9 1008.9 0.0
28/03:00am 4.4 1.7 0.6 76 1.5 S 4 7 2 4 1008.8 1008.8 0.0
28/02:30am 6.3 3.2 1.4 71 2.0 ESE 7 11 4 6 1008.7 1008.7 0.0
28/02:22am 5.8 2.5 0.2 67 2.2 SSE 7 11 4 6 1008.7 1008.7 0.0
28/02:00am 10.9 6.8 2.0 54 3.8 WNW 13 17 7 9 1008.7 1008.7 0.0
28/01:30am 11.4 7.2 1.4 50 4.2 WNW 13 19 7 10 1008.8 1008.8 0.0
28/01:00am 11.9 6.6 1.8 50 4.3 WNW 19 22 10 12 1008.7 1008.7 0.0
28/12:30am 11.0 7.1 1.0 50 4.2 WNW 11 15 6 8 1008.7 1008.7 0.0
28/12:00am 12.1 7.0 0.8 46 4.7 WNW 17 20 9 11 1008.7 1008.7 0.0
 
Date/Time
EST
Temp
°C
App
Temp
°C
Dew
Point
Rel
Hum
%
Delta-T
°C
Wind Press
QNH
hPa
Press
MSL
hPa
Rain
since 9 am
mm
Dir
 
Spd
km/h
Gust
km/h
Spd
kts
Gust
kts
27/11:30pm 13.0 7.4 1.0 44 5.1 NW 20 24 11 13 1008.7 1008.7 0.0
27/11:00pm 12.5 7.0 0.6 44 5.0 WNW 19 32 10 17 1008.8 1008.8 0.0
27/10:30pm 11.5 7.1 0.3 46 4.6 NW 13 17 7 9 1008.7 1008.7 0.0
27/10:00pm 14.1 9.0 0.7 40 5.7 W 17 30 9 16 1008.4 1008.4 0.0
27/09:30pm 13.0 8.6 0.4 42 5.3 NW 13 17 7 9 1008.1 1008.1 0.0
27/09:00pm 14.2 8.6 0.1 38 5.9 W 19 32 10 17 1007.9 1007.9 0.0
27/08:30pm 15.0 10.2 0.1 36 6.3 W 15 26 8 14 1007.6 1007.6 0.0
27/08:00pm 14.9 10.4 0.0 36 6.3 WNW 13 17 7 9 1007.3 1007.3 0.0
27/07:30pm 16.0 9.1 0.2 34 6.8 W 26 35 14 19 1006.8 1006.8 0.0
27/07:00pm 16.0 9.5 0.2 34 6.8 W 24 33 13 18 1006.6 1006.6 0.0
27/06:30pm 15.9 10.1 -0.3 33 6.9 W 20 35 11 19 1006.4 1006.4 0.0
27/06:00pm 15.9 10.6 -0.8 32 7.0 WNW 17 22 9 12 1005.9 1005.9 0.0
27/05:30pm 17.2 10.6 -0.5 30 7.5 W 24 35 13 19 1005.5 1005.5 0.0
27/05:00pm 17.6 11.7 -0.6 29 7.8 W 20 32 11 17 1005.1 1005.1 0.0
27/04:30pm 18.7 12.7 -1.2 26 8.5 WNW 20 35 11 19 1004.5 1004.5 0.0
27/04:00pm 20.0 13.6 -1.7 23 9.3 WNW 22 39 12 21 1004.1 1004.1 0.0
27/03:30pm 20.8 13.5 -3.0 20 10.0 WNW 26 41 14 22 1003.3 1003.3 0.0
27/03:00pm 21.7 14.3 -3.6 18 10.6 W 26 37 14 20 1003.1 1003.1 0.0
27/02:30pm 22.2 15.5 -4.0 17 10.9 W 22 35 12 19 1002.7 1002.7 0.0
27/02:23pm 22.1 14.4 -3.3 18 10.7 WNW 28 46 15 25 1002.7 1002.7 0.0
27/02:00pm 22.4 14.5 -4.6 16 11.2 W 28 39 15 21 1002.6 1002.6 0.0
27/01:30pm 22.4 14.6 -3.8 17 11.0 W 28 50 15 27 1002.4 1002.3 0.0
27/01:04pm 22.5 14.6 -4.5 16 11.2 W 28 48 15 26 1002.6 1002.6 0.0
27/01:00pm 22.8 15.3 -4.3 16 11.3 W 26 41 14 22 1002.6 1002.6 0.0
27/12:30pm 22.8 14.9 -4.3 16 11.3 WNW 28 43 15 23 1002.8 1002.8 0.0
27/12:00pm 22.6 15.2 -3.7 17 11.1 W 26 35 14 19 1003.2 1003.2 0.0
27/11:30am 22.5 15.1 -3.7 17 11.0 W 26 41 14 22 1003.6 1003.6 0.0
27/11:00am 22.1 14.5 -1.9 20 10.4 W 28 41 15 22 1004.0 1004.0 0.0
27/10:30am 21.5 14.0 -1.1 22 9.9 WNW 28 44 15 24 1004.5 1004.5 0.0
27/10:00am 21.5 14.7 0.7 25 9.5 WNW 26 41 14 22 1004.7 1004.7 0.0
27/09:30am 20.6 13.6 2.0 29 8.6 W 28 41 15 22 1004.8 1004.8 0.0
27/09:00am 20.2 14.6 3.4 33 8.0 WNW 22 41 12 22 1004.7 1004.7 0.0
27/08:30am 19.3 14.5 5.7 41 6.7 NW 20 35 11 19 1004.5 1004.5 0.0
27/08:00am 18.2 15.3 6.7 47 5.8 WNW 11 15 6 8 1004.3 1004.3 0.0
27/07:30am 16.0 13.5 6.7 54 4.6 WNW 9 15 5 8 1004.3 1004.3 0.0
27/07:00am 13.4 11.0 7.0 65 3.1 WNW 9 17 5 9 1004.2 1004.2 0.0
27/06:30am 14.1 11.8 7.6 65 3.2 W 9 17 5 9 1003.8 1003.8 0.0
27/06:00am 15.9 13.8 8.2 60 3.9 WNW 9 17 5 9 1003.3 1003.3 0.0
27/05:30am 16.5 14.1 8.5 59 4.1 WNW 11 17 6 9 1003.0 1003.0 0.0
27/05:00am 12.5 10.2 9.1 80 1.7 NNW 11 13 6 7 1003.0 1003.0 0.0
27/04:30am 11.8 9.8 8.8 82 1.5 NNW 9 13 5 7 1002.5 1002.5 0.0
27/04:00am 13.0 12.2 9.8 81 1.6 N 4 11 2 6 1002.7 1002.7 0.0
27/03:30am 14.2 12.5 9.8 75 2.3 WNW 9 13 5 7 1002.6 1002.6 0.0
27/03:00am 11.9 10.3 10.1 89 0.9 SSE 9 13 5 7 1003.0 1003.0 0.0
27/02:30am 12.3 10.9 10.9 91 0.7 N 9 13 5 7 1002.7 1002.7 0.0
27/02:00am 12.1 12.3 10.5 90 0.8 CALM 0 0 0 0 1003.1 1003.1 0.0
27/01:30am 12.8 13.2 11.2 90 0.8 CALM 0 7 0 4 1003.4 1003.4 0.0
27/01:00am 12.8 11.8 11.0 89 0.9 W 7 11 4 6 1002.9 1002.9 0.0
27/12:30am 13.0 12.0 10.9 87 1.1 WNW 7 9 4 5 1003.1 1003.1 0.0
27/12:00am 13.3 12.3 11.0 86 1.2 WSW 7 11 4 6 1002.9 1002.9 0.0
 
Date/Time
EST
Temp
°C
App
Temp
°C
Dew
Point
Rel
Hum
%
Delta-T
°C
Wind Press
QNH
hPa
Press
MSL
hPa
Rain
since 9 am
mm
Dir
 
Spd
km/h
Gust
km/h
Spd
kts
Gust
kts
26/11:30pm 13.5 13.0 10.9 84 1.4 WSW 4 9 2 5 1002.9 1002.9 0.0
26/11:00pm 14.3 14.0 11.6 84 1.5 N 4 11 2 6 1003.1 1003.1 0.0
26/10:30pm 15.1 14.2 11.3 78 2.0 N 7 9 4 5 1003.3 1003.3 0.0
26/10:00pm 17.0 16.3 12.1 73 2.7 N 7 9 4 5 1003.4 1003.4 0.0
26/09:30pm 17.2 15.7 11.9 71 2.9 NNW 11 13 6 7 1004.1 1004.1 0.0
26/09:00pm 18.2 16.1 12.4 69 3.2 NNW 15 20 8 11 1004.1 1004.1 0.0
26/08:30pm 18.3 15.8 12.3 68 3.3 NNW 17 22 9 12 1004.0 1004.0 0.0
26/08:00pm 18.5 15.5 12.7 69 3.3 NNW 20 26 11 14 1004.3 1004.3 0.0

Other Formats:

Comma delimited format used in spreadsheet applications
http://www.bom.gov.au/fwo/IDN60801/IDN60801.94785.axf

JavaScript Object Notation format (JSON) in row-major order
http://www.bom.gov.au/fwo/IDN60801/IDN60801.94785.json